Time;durP1;ratioP1;P1;durP2;ratioP2;P2;SDS_P1;SDS_P2;PMS_P1;PMS_P2;Temp;Humidity;BMP_temperature;BMP_pressure;BME280_temperature;BME280_humidity;BME280_pressure;Samples;Min_cycle;Max_cycle;Signal;HPM_P1;HPM_P2
2022/08/25 00:01:28;;;;;;;5.65;5.15;;;;;;;;;;5049939;28;20512;-78
2022/08/25 00:03:56;;;;;;;6.70;5.50;;;;;;;;;;5050719;28;20496;-78
2022/08/25 00:06:22;;;;;;;7.10;5.70;;;;;;;;;;5052628;28;20417;-78
2022/08/25 00:08:49;;;;;;;6.32;5.40;;;;;;;;;;5051545;28;20405;-80
2022/08/25 00:11:17;;;;;;;6.88;5.35;;;;;;;;;;5051464;28;20440;-79
2022/08/25 00:13:45;;;;;;;6.35;5.30;;;;;;;;;;5053779;28;20453;-80
2022/08/25 00:16:12;;;;;;;6.30;5.03;;;;;;;;;;5050075;28;20873;-80
2022/08/25 00:18:39;;;;;;;7.78;5.10;;;;;;;;;;5053704;28;20421;-80
2022/08/25 00:21:05;;;;;;;9.33;5.03;;;;;;;;;;5052412;28;20445;-80
2022/08/25 00:23:32;;;;;;;7.07;5.80;;;;;;;;;;5053779;28;20918;-80
2022/08/25 00:25:58;;;;;;;5.50;4.90;;;;;;;;;;5054767;28;20973;-80
2022/08/25 00:28:25;;;;;;;7.15;5.40;;;;;;;;;;5054594;28;20429;-81
2022/08/25 00:30:52;;;;;;;8.45;5.22;;;;;;;;;;5067990;28;20766;-80
2022/08/25 00:33:19;;;;;;;6.93;5.40;;;;;;;;;;5067312;28;20442;-79
2022/08/25 00:35:46;;;;;;;5.50;5.00;;;;;;;;;;5070307;28;20524;-79
2022/08/25 00:38:12;;;;;;;6.68;5.80;;;;;;;;;;5069480;28;20425;-79
2022/08/25 00:40:41;;;;;;;6.63;5.80;;;;;;;;;;5067666;28;20432;-78
2022/08/25 00:43:08;;;;;;;8.13;5.40;;;;;;;;;;5070721;28;20423;-78
2022/08/25 00:45:34;;;;;;;6.00;5.38;;;;;;;;;;5068194;28;20450;-78
2022/08/25 00:48:03;;;;;;;6.32;5.40;;;;;;;;;;5070993;28;20428;-78
2022/08/25 00:50:32;;;;;;;7.00;5.10;;;;;;;;;;5070250;28;20430;-80
2022/08/25 00:53:00;;;;;;;7.63;5.10;;;;;;;;;;5067735;28;21297;-83
2022/08/25 00:55:28;;;;;;;7.55;5.70;;;;;;;;;;5071432;28;20423;-79
2022/08/25 00:57:57;;;;;;;5.70;5.20;;;;;;;;;;5073317;28;20426;-79
2022/08/25 01:00:26;;;;;;;7.00;5.57;;;;;;;;;;5071559;28;20442;-79
2022/08/25 01:02:52;;;;;;;6.60;5.57;;;;;;;;;;5071491;28;20429;-80
2022/08/25 01:05:20;;;;;;;6.60;6.00;;;;;;;;;;5072101;28;20423;-80
2022/08/25 01:07:49;;;;;;;7.27;5.70;;;;;;;;;;5072559;28;20509;-80
2022/08/25 01:10:16;;;;;;;6.45;5.82;;;;;;;;;;5068955;28;20429;-79
2022/08/25 01:12:43;;;;;;;8.82;6.00;;;;;;;;;;5073806;28;20940;-80
2022/08/25 01:15:12;;;;;;;6.80;6.13;;;;;;;;;;5037218;28;20473;-79
2022/08/25 01:17:45;;;;;;;6.75;5.70;;;;;;;;;;5074121;28;20909;-80
2022/08/25 01:20:18;;;;;;;6.47;5.77;;;;;;;;;;5074087;28;20450;-79
2022/08/25 01:23:03;;;;;;;7.05;6.22;;;;;;;;;;5070451;28;20434;-79
2022/08/25 01:25:36;;;;;;;6.60;6.00;;;;;;;;;;5068913;28;21888;-78
2022/08/25 01:31:22;;;;;;;7.78;5.90;;;;;;;;;;5067557;28;20489;-82
2022/08/25 01:33:49;;;;;;;6.93;6.22;;;;;;;;;;5068120;28;20455;-81
2022/08/25 01:36:32;;;;;;;7.97;5.75;;;;;;;;;;5068385;28;20432;-80
2022/08/25 01:39:00;;;;;;;6.68;5.97;;;;;;;;;;5073815;28;20483;-82
2022/08/25 01:41:36;;;;;;;6.57;5.90;;;;;;;;;;5070265;28;20430;-80
2022/08/25 01:50:23;;;;;;;7.45;6.63;;;;;;;;;;5069871;28;20477;-80
2022/08/25 01:53:05;;;;;;;7.32;6.70;;;;;;;;;;5070943;28;20428;-78
2022/08/25 01:55:50;;;;;;;8.43;6.60;;;;;;;;;;5068916;28;20427;-82
2022/08/25 02:01:21;;;;;;;8.20;6.65;;;;;;;;;;5052034;28;20439;-79
2022/08/25 02:03:48;;;;;;;9.03;6.70;;;;;;;;;;5049333;28;20433;-79
2022/08/25 02:06:16;;;;;;;7.68;6.88;;;;;;;;;;5050384;28;20436;-80
2022/08/25 02:08:43;;;;;;;11.00;6.80;;;;;;;;;;5053529;28;20443;-80
2022/08/25 02:11:11;;;;;;;7.25;6.55;;;;;;;;;;5055301;28;20425;-80
2022/08/25 02:16:55;;;;;;;8.32;7.13;;;;;;;;;;5046660;28;20408;-78
2022/08/25 02:25:05;;;;;;;10.63;7.13;;;;;;;;;;5049992;28;20457;-78
2022/08/25 02:27:32;;;;;;;9.00;7.03;;;;;;;;;;5053175;28;20441;-78
2022/08/25 02:29:58;;;;;;;7.80;7.00;;;;;;;;;;5055218;28;20451;-79
2022/08/25 02:32:26;;;;;;;8.80;7.50;;;;;;;;;;5054369;28;20425;-79
2022/08/25 02:34:53;;;;;;;9.40;7.30;;;;;;;;;;5048848;28;20496;-78
2022/08/25 02:37:20;;;;;;;8.88;7.30;;;;;;;;;;5038194;28;20472;-82
2022/08/25 02:39:46;;;;;;;8.70;7.30;;;;;;;;;;5054508;28;20425;-79
2022/08/25 02:42:13;;;;;;;9.70;7.23;;;;;;;;;;5054152;28;20438;-79
2022/08/25 02:44:41;;;;;;;10.68;7.40;;;;;;;;;;5053918;28;20497;-79
2022/08/25 02:47:07;;;;;;;7.70;6.70;;;;;;;;;;5054917;28;20440;-79
2022/08/25 02:49:35;;;;;;;9.85;7.40;;;;;;;;;;5051916;28;21029;-79
2022/08/25 02:52:01;;;;;;;8.88;7.68;;;;;;;;;;5056685;28;20431;-79
2022/08/25 02:54:28;;;;;;;9.75;8.05;;;;;;;;;;5054458;28;20444;-81
2022/08/25 02:56:54;;;;;;;8.60;7.70;;;;;;;;;;5056980;28;20460;-80
2022/08/25 02:59:21;;;;;;;9.90;7.70;;;;;;;;;;5056498;28;20433;-80
2022/08/25 03:01:47;;;;;;;9.10;7.95;;;;;;;;;;5058580;28;20437;-80
2022/08/25 03:04:14;;;;;;;10.10;7.82;;;;;;;;;;5059048;28;20420;-80
2022/08/25 03:06:41;;;;;;;10.10;8.32;;;;;;;;;;5055106;28;20530;-79
2022/08/25 03:09:08;;;;;;;11.90;8.80;;;;;;;;;;5053819;28;20560;-78
2022/08/25 03:11:37;;;;;;;10.00;8.60;;;;;;;;;;5055379;28;20425;-79
2022/08/25 03:14:03;;;;;;;9.85;8.75;;;;;;;;;;5052120;28;20863;-80
2022/08/25 03:16:30;;;;;;;11.00;8.97;;;;;;;;;;5049338;28;20431;-82
2022/08/25 03:18:58;;;;;;;9.95;8.95;;;;;;;;;;5037780;28;20425;-80
2022/08/25 03:21:25;;;;;;;10.80;8.35;;;;;;;;;;5052505;28;20500;-80
2022/08/25 03:23:52;;;;;;;9.83;8.40;;;;;;;;;;5049753;28;20474;-81
2022/08/25 03:29:03;;;;;;;10.82;9.73;;;;;;;;;;5034874;28;20509;-79
2022/08/25 03:31:31;;;;;;;11.30;10.10;;;;;;;;;;5054168;28;20483;-80
2022/08/25 03:33:57;;;;;;;12.82;9.60;;;;;;;;;;5053311;28;20434;-78
2022/08/25 03:36:24;;;;;;;11.85;9.73;;;;;;;;;;5034386;28;20493;-79
2022/08/25 03:38:51;;;;;;;13.50;9.90;;;;;;;;;;5050316;28;20435;-79
2022/08/25 03:41:20;;;;;;;12.85;9.85;;;;;;;;;;5054411;28;21113;-78
2022/08/25 03:43:46;;;;;;;11.30;10.10;;;;;;;;;;5051575;28;20409;-79
2022/08/25 03:46:18;;;;;;;12.35;10.07;;;;;;;;;;5055742;28;20430;-80
2022/08/25 03:48:44;;;;;;;14.70;10.50;;;;;;;;;;5052718;28;20439;-80
2022/08/25 03:51:11;;;;;;;12.00;10.80;;;;;;;;;;5051551;28;20433;-81
2022/08/25 03:53:38;;;;;;;11.38;10.27;;;;;;;;;;5053844;28;20461;-80
2022/08/25 03:56:05;;;;;;;12.40;11.10;;;;;;;;;;5052110;28;20438;-81
2022/08/25 03:58:33;;;;;;;12.13;10.20;;;;;;;;;;5051508;28;20449;-78
2022/08/25 04:00:59;;;;;;;11.93;10.63;;;;;;;;;;5045624;28;20446;-79
2022/08/25 04:03:26;;;;;;;15.40;11.50;;;;;;;;;;5048337;28;20429;-78
2022/08/25 04:05:52;;;;;;;15.90;11.65;;;;;;;;;;5041659;28;20421;-79
2022/08/25 04:08:18;;;;;;;11.70;10.48;;;;;;;;;;5027670;28;20421;-79
2022/08/25 04:10:45;;;;;;;14.60;11.20;;;;;;;;;;5043704;28;20486;-79
2022/08/25 04:13:11;;;;;;;12.75;10.95;;;;;;;;;;5030574;28;20426;-80
2022/08/25 04:15:41;;;;;;;12.10;10.80;;;;;;;;;;5045695;28;20482;-79
2022/08/25 04:18:10;;;;;;;12.23;11.13;;;;;;;;;;5046020;28;20440;-79
2022/08/25 04:20:36;;;;;;;13.35;10.35;;;;;;;;;;5042031;28;21014;-79
2022/08/25 04:23:02;;;;;;;14.93;11.57;;;;;;;;;;5046310;28;20421;-79
2022/08/25 04:25:30;;;;;;;13.95;11.50;;;;;;;;;;5042513;28;20436;-79
2022/08/25 04:27:56;;;;;;;12.43;10.73;;;;;;;;;;5025805;28;20477;-78
2022/08/25 04:30:23;;;;;;;13.30;11.90;;;;;;;;;;5041508;28;20433;-80
2022/08/25 04:32:51;;;;;;;12.00;10.80;;;;;;;;;;5046042;28;20429;-78
2022/08/25 04:35:17;;;;;;;13.00;11.70;;;;;;;;;;5045809;28;20953;-79
2022/08/25 04:37:46;;;;;;;13.52;11.50;;;;;;;;;;5046118;28;20434;-79
2022/08/25 04:40:13;;;;;;;13.45;11.50;;;;;;;;;;5031655;28;20526;-78
2022/08/25 04:42:39;;;;;;;15.80;12.40;;;;;;;;;;5046598;28;20449;-79
2022/08/25 04:45:06;;;;;;;14.10;12.60;;;;;;;;;;5041376;28;20417;-79
2022/08/25 04:47:36;;;;;;;13.63;12.30;;;;;;;;;;5043624;28;20438;-79
2022/08/25 04:50:05;;;;;;;14.40;12.90;;;;;;;;;;5053024;28;20500;-79
2022/08/25 04:52:31;;;;;;;15.32;13.40;;;;;;;;;;5048341;28;20928;-79
2022/08/25 04:54:58;;;;;;;14.32;12.80;;;;;;;;;;5045941;28;20417;-78
2022/08/25 04:57:25;;;;;;;13.70;12.15;;;;;;;;;;5045887;28;20434;-78
2022/08/25 04:59:51;;;;;;;13.57;12.17;;;;;;;;;;5047582;28;20810;-79
2022/08/25 05:02:18;;;;;;;16.75;13.55;;;;;;;;;;5045674;28;20578;-79
2022/08/25 05:04:44;;;;;;;13.97;12.40;;;;;;;;;;5045842;28;20433;-79
2022/08/25 05:07:12;;;;;;;14.75;13.25;;;;;;;;;;5038721;28;20440;-79
2022/08/25 05:09:39;;;;;;;16.83;13.80;;;;;;;;;;5046564;28;20413;-79
2022/08/25 05:12:05;;;;;;;15.65;13.80;;;;;;;;;;5044606;28;20429;-80
2022/08/25 05:14:32;;;;;;;17.85;14.40;;;;;;;;;;5046560;28;20434;-80
2022/08/25 05:16:59;;;;;;;16.50;14.75;;;;;;;;;;5064159;28;21111;-79
2022/08/25 05:19:25;;;;;;;15.77;13.98;;;;;;;;;;5063315;28;20431;-80
2022/08/25 05:21:52;;;;;;;15.80;14.20;;;;;;;;;;5064920;28;20436;-79
2022/08/25 05:24:20;;;;;;;16.48;14.70;;;;;;;;;;5064690;28;20895;-81
2022/08/25 05:26:47;;;;;;;15.30;13.70;;;;;;;;;;5066013;28;20439;-81
2022/08/25 05:29:14;;;;;;;16.37;14.60;;;;;;;;;;5060852;28;20423;-81
2022/08/25 05:31:41;;;;;;;15.50;13.90;;;;;;;;;;5066295;28;20494;-81
2022/08/25 05:34:08;;;;;;;16.02;14.32;;;;;;;;;;5070825;28;20432;-81
2022/08/25 05:36:35;;;;;;;17.58;15.00;;;;;;;;;;5063564;28;20955;-82
2022/08/25 05:39:02;;;;;;;15.95;13.70;;;;;;;;;;5067536;28;20467;-79
2022/08/25 05:41:30;;;;;;;16.40;14.10;;;;;;;;;;5064621;28;20514;-81
2022/08/25 05:43:57;;;;;;;17.65;13.60;;;;;;;;;;5065638;28;20937;-79
2022/08/25 05:46:24;;;;;;;17.08;14.65;;;;;;;;;;5066349;28;20455;-82
2022/08/25 05:48:51;;;;;;;15.32;13.73;;;;;;;;;;5065985;28;20438;-80
2022/08/25 05:51:18;;;;;;;16.50;14.70;;;;;;;;;;5047957;28;20438;-80
2022/08/25 05:53:45;;;;;;;19.33;14.68;;;;;;;;;;5061783;28;20441;-80
2022/08/25 05:56:13;;;;;;;15.80;13.90;;;;;;;;;;5069649;28;20519;-80
2022/08/25 05:58:41;;;;;;;17.55;14.60;;;;;;;;;;5062258;28;20432;-80
2022/08/25 06:03:53;;;;;;;16.70;14.90;;;;;;;;;;5062263;28;20414;-81
2022/08/25 06:06:20;;;;;;;18.35;15.27;;;;;;;;;;5062438;28;21019;-82
2022/08/25 06:08:47;;;;;;;15.90;14.23;;;;;;;;;;5062272;28;20936;-79
2022/08/25 06:11:15;;;;;;;17.40;14.82;;;;;;;;;;5048981;28;20431;-79
2022/08/25 06:13:43;;;;;;;16.55;14.85;;;;;;;;;;5048871;28;20936;-81
2022/08/25 06:16:09;;;;;;;18.53;16.63;;;;;;;;;;5064946;28;20455;-81
2022/08/25 06:18:35;;;;;;;19.98;15.60;;;;;;;;;;5066921;28;20451;-80
2022/08/25 06:21:07;;;;;;;19.27;16.13;;;;;;;;;;5065870;28;20430;-81
2022/08/25 06:23:33;;;;;;;21.08;16.35;;;;;;;;;;5062697;28;20433;-81
2022/08/25 06:26:00;;;;;;;18.23;15.57;;;;;;;;;;5063996;28;21048;-80
2022/08/25 06:28:26;;;;;;;18.13;16.20;;;;;;;;;;5064455;28;20459;-82
2022/08/25 06:30:59;;;;;;;19.25;15.63;;;;;;;;;;5045561;28;20416;-81
2022/08/25 06:33:25;;;;;;;19.27;16.40;;;;;;;;;;5044817;28;20434;-82
2022/08/25 06:35:53;;;;;;;19.40;15.95;;;;;;;;;;5071357;28;20420;-80
2022/08/25 06:38:19;;;;;;;17.70;15.37;;;;;;;;;;5068297;28;20937;-82
2022/08/25 06:40:46;;;;;;;19.00;15.83;;;;;;;;;;5066479;28;20431;-81
2022/08/25 06:43:14;;;;;;;18.87;16.20;;;;;;;;;;5068854;28;20415;-80
2022/08/25 06:45:43;;;;;;;17.63;15.40;;;;;;;;;;5068067;28;20415;-79
2022/08/25 06:48:10;;;;;;;16.30;14.60;;;;;;;;;;5066035;28;20505;-78
2022/08/25 06:50:38;;;;;;;16.20;14.50;;;;;;;;;;5060431;28;20423;-79
2022/08/25 06:53:04;;;;;;;20.40;15.60;;;;;;;;;;5066625;28;20519;-80
2022/08/25 06:55:31;;;;;;;19.35;15.10;;;;;;;;;;5069421;28;20419;-79
2022/08/25 06:57:57;;;;;;;18.23;15.10;;;;;;;;;;5068831;28;20430;-80
2022/08/25 07:00:24;;;;;;;17.20;14.85;;;;;;;;;;5049976;28;20438;-82
2022/08/25 07:02:50;;;;;;;19.38;14.80;;;;;;;;;;5047324;28;20427;-81
2022/08/25 07:05:18;;;;;;;17.13;14.80;;;;;;;;;;5048221;28;20424;-81
2022/08/25 07:07:45;;;;;;;18.38;15.57;;;;;;;;;;5061324;28;20430;-80
2022/08/25 07:10:12;;;;;;;19.40;15.45;;;;;;;;;;5068693;28;20423;-80
2022/08/25 07:12:38;;;;;;;16.90;14.40;;;;;;;;;;5070901;28;21402;-81
2022/08/25 07:15:05;;;;;;;18.42;14.98;;;;;;;;;;5070468;28;20442;-80
2022/08/25 07:17:32;;;;;;;17.27;14.02;;;;;;;;;;5074713;28;20419;-80
2022/08/25 07:19:58;;;;;;;18.80;14.90;;;;;;;;;;5071317;28;20415;-82
2022/08/25 07:22:26;;;;;;;19.10;13.63;;;;;;;;;;5071791;28;20428;-80
2022/08/25 07:24:53;;;;;;;17.17;13.85;;;;;;;;;;5049332;28;20477;-80
2022/08/25 07:27:20;;;;;;;14.80;13.20;;;;;;;;;;5073556;28;20898;-79
2022/08/25 07:29:48;;;;;;;16.80;15.00;;;;;;;;;;5074721;28;20411;-80
2022/08/25 07:32:15;;;;;;;17.00;13.38;;;;;;;;;;5066382;28;20433;-80
2022/08/25 07:37:26;;;;;;;15.43;13.67;;;;;;;;;;5063645;28;20416;-81
2022/08/25 07:39:53;;;;;;;20.60;15.10;;;;;;;;;;5069960;28;20431;-82
2022/08/25 07:42:19;;;;;;;16.42;13.77;;;;;;;;;;5068122;28;20460;-81
2022/08/25 07:44:46;;;;;;;15.25;13.13;;;;;;;;;;5063566;28;21087;-80
2022/08/25 07:47:14;;;;;;;14.13;12.73;;;;;;;;;;5065449;28;20967;-80
2022/08/25 07:49:40;;;;;;;17.92;14.55;;;;;;;;;;5053802;28;20419;-80
2022/08/25 07:52:07;;;;;;;16.55;14.60;;;;;;;;;;5066067;28;20437;-79
2022/08/25 07:54:35;;;;;;;17.48;13.85;;;;;;;;;;5066623;28;20419;-79
2022/08/25 07:57:02;;;;;;;17.20;12.93;;;;;;;;;;5041886;28;20538;-80
2022/08/25 07:59:28;;;;;;;16.15;13.93;;;;;;;;;;5066993;28;20437;-80
2022/08/25 08:01:54;;;;;;;16.70;14.15;;;;;;;;;;5066946;28;20473;-81
2022/08/25 08:04:21;;;;;;;14.73;13.13;;;;;;;;;;5068443;28;20431;-81
2022/08/25 08:06:48;;;;;;;16.15;13.30;;;;;;;;;;5071880;28;20415;-81
2022/08/25 08:09:15;;;;;;;15.75;14.07;;;;;;;;;;5065550;28;20429;-81
2022/08/25 08:11:43;;;;;;;15.55;12.40;;;;;;;;;;5031977;28;20427;-81
2022/08/25 08:14:10;;;;;;;14.90;12.37;;;;;;;;;;5068116;28;20450;-80
2022/08/25 08:16:37;;;;;;;14.38;12.98;;;;;;;;;;5063305;28;20427;-81
2022/08/25 08:19:04;;;;;;;15.70;12.80;;;;;;;;;;5064966;28;20881;-80
2022/08/25 08:21:31;;;;;;;12.90;11.63;;;;;;;;;;5065675;28;20472;-81
2022/08/25 08:23:58;;;;;;;15.47;12.67;;;;;;;;;;5065105;28;20836;-82
2022/08/25 08:26:25;;;;;;;15.33;12.60;;;;;;;;;;5067830;28;20428;-82
2022/08/25 08:28:53;;;;;;;13.75;12.35;;;;;;;;;;5065132;28;20520;-81
2022/08/25 08:31:20;;;;;;;16.30;13.07;;;;;;;;;;5061242;28;20442;-80
2022/08/25 08:33:46;;;;;;;13.98;12.48;;;;;;;;;;5061965;28;21012;-81
2022/08/25 08:36:12;;;;;;;13.88;12.45;;;;;;;;;;5065002;28;20598;-80
2022/08/25 08:38:40;;;;;;;13.63;12.15;;;;;;;;;;5062874;28;20432;-81
2022/08/25 08:44:03;;;;;;;13.50;12.10;;;;;;;;;;5064995;28;20418;-80
2022/08/25 08:46:36;;;;;;;14.40;12.07;;;;;;;;;;5050267;28;20415;-80
2022/08/25 08:49:06;;;;;;;13.55;12.15;;;;;;;;;;5064885;28;20949;-80
2022/08/25 08:51:35;;;;;;;14.82;11.80;;;;;;;;;;5064175;28;20427;-79
2022/08/25 08:54:06;;;;;;;13.30;12.00;;;;;;;;;;5063030;28;20419;-79
2022/08/25 08:56:36;;;;;;;12.82;11.63;;;;;;;;;;5065694;28;21536;-80
2022/08/25 08:59:05;;;;;;;13.18;11.88;;;;;;;;;;5067516;28;20435;-80
2022/08/25 09:01:33;;;;;;;13.27;11.80;;;;;;;;;;5061847;28;20844;-81
2022/08/25 09:04:02;;;;;;;13.40;11.70;;;;;;;;;;5065164;28;20431;-81
2022/08/25 09:06:31;;;;;;;13.70;11.87;;;;;;;;;;5065842;28;20454;-80
2022/08/25 09:08:59;;;;;;;13.15;11.85;;;;;;;;;;5065365;28;20431;-81
2022/08/25 09:11:30;;;;;;;16.63;12.43;;;;;;;;;;5063701;28;20432;-80
2022/08/25 09:14:03;;;;;;;12.90;11.57;;;;;;;;;;5060476;28;20419;-81
2022/08/25 09:19:32;;;;;;;17.50;12.60;;;;;;;;;;5068064;28;20506;-79
2022/08/25 09:22:01;;;;;;;14.23;12.75;;;;;;;;;;5047260;28;21037;-80
2022/08/25 09:24:35;;;;;;;14.90;12.07;;;;;;;;;;5030952;28;20428;-80
2022/08/25 09:27:06;;;;;;;13.38;11.40;;;;;;;;;;5037594;28;20490;-80
2022/08/25 09:29:42;;;;;;;13.00;11.60;;;;;;;;;;5023340;28;20428;-81
2022/08/25 09:32:09;;;;;;;12.30;11.10;;;;;;;;;;5039091;28;20440;-81
2022/08/25 09:34:36;;;;;;;13.20;11.68;;;;;;;;;;5040804;28;20407;-82
2022/08/25 09:37:03;;;;;;;12.80;10.80;;;;;;;;;;5039917;28;21034;-81
2022/08/25 09:39:30;;;;;;;14.88;11.43;;;;;;;;;;5039483;28;20434;-81
2022/08/25 09:41:59;;;;;;;12.32;10.45;;;;;;;;;;5042450;28;20966;-80
2022/08/25 09:44:26;;;;;;;11.25;10.10;;;;;;;;;;5039979;28;20794;-80
2022/08/25 09:47:00;;;;;;;11.10;10.00;;;;;;;;;;5046900;28;20430;-80
2022/08/25 09:49:33;;;;;;;12.85;10.60;;;;;;;;;;5045653;28;20458;-80
2022/08/25 09:52:16;;;;;;;11.50;10.30;;;;;;;;;;5046813;28;20440;-80
2022/08/25 09:54:42;;;;;;;15.60;11.68;;;;;;;;;;5042102;28;20440;-81
2022/08/25 09:57:09;;;;;;;11.73;10.73;;;;;;;;;;5045966;28;20433;-81
2022/08/25 09:59:36;;;;;;;12.10;10.88;;;;;;;;;;5046382;28;20406;-80
2022/08/25 10:02:04;;;;;;;12.50;11.20;;;;;;;;;;5036922;28;20810;-81
2022/08/25 10:04:33;;;;;;;12.27;10.60;;;;;;;;;;5044189;28;20433;-81
2022/08/25 10:07:00;;;;;;;11.80;10.60;;;;;;;;;;5050982;28;20464;-82
2022/08/25 10:09:29;;;;;;;12.00;10.70;;;;;;;;;;5048395;28;20442;-82
2022/08/25 10:11:58;;;;;;;12.77;11.43;;;;;;;;;;5049026;28;20437;-80
2022/08/25 10:14:27;;;;;;;13.03;10.40;;;;;;;;;;5050400;28;20429;-81
2022/08/25 10:17:10;;;;;;;12.77;11.48;;;;;;;;;;5046947;28;20922;-80
2022/08/25 10:19:39;;;;;;;12.48;11.18;;;;;;;;;;5047270;28;20783;-79
2022/08/25 10:22:07;;;;;;;12.98;10.60;;;;;;;;;;5047311;28;20433;-80
2022/08/25 10:24:34;;;;;;;11.70;10.50;;;;;;;;;;5049108;28;20409;-81
2022/08/25 10:27:03;;;;;;;11.82;10.40;;;;;;;;;;5050488;28;20425;-80
2022/08/25 10:29:41;;;;;;;12.10;10.60;;;;;;;;;;5025134;28;20430;-80
2022/08/25 10:32:10;;;;;;;16.13;9.80;;;;;;;;;;5046214;28;20442;-80
2022/08/25 10:34:42;;;;;;;11.15;10.15;;;;;;;;;;5048837;28;20443;-80
2022/08/25 10:37:12;;;;;;;11.00;9.90;;;;;;;;;;5047385;28;20425;-80
2022/08/25 10:39:40;;;;;;;12.05;10.20;;;;;;;;;;5042025;28;20488;-81
2022/08/25 10:42:14;;;;;;;11.65;10.45;;;;;;;;;;5047764;28;20997;-81
2022/08/25 10:47:44;;;;;;;10.60;9.70;;;;;;;;;;5051528;28;20424;-80
2022/08/25 10:50:18;;;;;;;10.90;9.75;;;;;;;;;;5051436;28;20417;-80
2022/08/25 10:52:52;;;;;;;11.20;10.00;;;;;;;;;;5050242;28;20487;-81
2022/08/25 10:55:22;;;;;;;13.43;9.63;;;;;;;;;;5051253;28;20417;-81
2022/08/25 10:57:52;;;;;;;11.77;10.07;;;;;;;;;;5053783;28;20441;-82
2022/08/25 11:00:21;;;;;;;12.80;10.20;;;;;;;;;;5052441;28;21101;-81
2022/08/25 11:02:57;;;;;;;11.27;10.07;;;;;;;;;;5035840;28;20494;-79
2022/08/25 11:05:26;;;;;;;12.30;9.53;;;;;;;;;;5049486;28;20409;-83
2022/08/25 11:07:54;;;;;;;11.87;10.10;;;;;;;;;;5050345;28;20429;-80
2022/08/25 11:10:25;;;;;;;11.55;9.40;;;;;;;;;;5050604;28;20436;-80
2022/08/25 11:12:55;;;;;;;10.60;9.60;;;;;;;;;;5051226;28;20526;-80
2022/08/25 11:15:24;;;;;;;10.50;9.40;;;;;;;;;;5052426;28;20423;-79
2022/08/25 11:17:54;;;;;;;10.27;9.15;;;;;;;;;;5049970;28;20929;-81
2022/08/25 11:20:22;;;;;;;9.70;8.80;;;;;;;;;;5053697;28;20417;-81
2022/08/25 11:22:51;;;;;;;10.43;9.10;;;;;;;;;;5048814;28;20433;-81
2022/08/25 11:25:21;;;;;;;9.43;8.60;;;;;;;;;;5047394;28;20422;-80
2022/08/25 11:27:49;;;;;;;10.02;9.02;;;;;;;;;;5051087;28;20436;-81
2022/08/25 11:30:16;;;;;;;11.27;8.70;;;;;;;;;;5051374;28;20419;-81
2022/08/25 11:32:44;;;;;;;9.67;8.83;;;;;;;;;;5049426;28;21034;-80
2022/08/25 11:35:12;;;;;;;11.45;8.43;;;;;;;;;;5045028;28;20425;-80
2022/08/25 11:37:43;;;;;;;9.70;8.80;;;;;;;;;;5053012;28;20505;-80
2022/08/25 11:40:27;;;;;;;10.73;9.30;;;;;;;;;;5050197;28;20448;-81
2022/08/25 11:43:00;;;;;;;10.18;8.68;;;;;;;;;;5053186;28;20518;-80
2022/08/25 11:45:42;;;;;;;10.50;8.35;;;;;;;;;;5049642;28;20417;-81
2022/08/25 11:48:13;;;;;;;10.32;8.90;;;;;;;;;;5029410;28;20426;-81
2022/08/25 11:50:55;;;;;;;9.93;8.90;;;;;;;;;;5043144;28;20430;-80
2022/08/25 11:53:24;;;;;;;9.48;8.57;;;;;;;;;;5052299;28;20421;-81
2022/08/25 11:55:53;;;;;;;9.25;8.20;;;;;;;;;;5049823;28;20677;-80
2022/08/25 11:58:29;;;;;;;10.30;9.18;;;;;;;;;;5048242;28;20433;-79
2022/08/25 12:00:56;;;;;;;11.02;8.82;;;;;;;;;;5049002;28;20421;-80
2022/08/25 12:03:41;;;;;;;9.52;8.52;;;;;;;;;;5045402;28;20440;-82
2022/08/25 12:06:14;;;;;;;8.60;7.70;;;;;;;;;;5043538;28;20431;-81
2022/08/25 12:08:49;;;;;;;9.50;8.60;;;;;;;;;;5050510;28;20433;-80
2022/08/25 12:11:42;;;;;;;10.00;9.00;;;;;;;;;;5050385;28;20981;-80
2022/08/25 12:14:16;;;;;;;10.07;8.80;;;;;;;;;;5042460;28;20438;-80
2022/08/25 12:16:43;;;;;;;10.60;8.75;;;;;;;;;;5067491;28;20424;-79
2022/08/25 12:19:26;;;;;;;10.82;9.07;;;;;;;;;;5047405;28;20491;-81
2022/08/25 12:21:54;;;;;;;10.73;9.13;;;;;;;;;;5069558;28;20426;-82
2022/08/25 12:24:21;;;;;;;12.15;8.80;;;;;;;;;;5046549;28;20411;-81
2022/08/25 12:26:55;;;;;;;12.02;8.75;;;;;;;;;;5051587;28;20426;-82
2022/08/25 12:29:26;;;;;;;11.68;8.88;;;;;;;;;;5071854;28;20446;-82
2022/08/25 12:32:01;;;;;;;11.45;9.13;;;;;;;;;;5075363;28;20884;-79
2022/08/25 12:34:36;;;;;;;11.30;8.97;;;;;;;;;;5067732;28;20504;-78
2022/08/25 12:37:05;;;;;;;9.53;8.53;;;;;;;;;;5056394;28;20432;-83
2022/08/25 12:39:33;;;;;;;10.30;9.20;;;;;;;;;;5071620;28;20442;-82
2022/08/25 12:42:01;;;;;;;9.05;8.10;;;;;;;;;;5070235;28;20428;-82
2022/08/25 12:44:37;;;;;;;10.05;8.52;;;;;;;;;;5071086;28;20436;-81
2022/08/25 12:47:19;;;;;;;9.80;8.60;;;;;;;;;;5066172;28;20933;-81
2022/08/25 12:49:46;;;;;;;10.93;8.57;;;;;;;;;;5047974;28;20416;-80
2022/08/25 12:52:16;;;;;;;9.85;8.88;;;;;;;;;;5069609;28;20458;-81
2022/08/25 12:54:48;;;;;;;9.88;8.88;;;;;;;;;;5067663;28;20412;-81
2022/08/25 12:57:36;;;;;;;9.90;8.90;;;;;;;;;;5070222;28;20454;-81
2022/08/25 13:00:11;;;;;;;10.93;8.80;;;;;;;;;;5069396;28;20427;-81
2022/08/25 13:02:48;;;;;;;10.52;9.52;;;;;;;;;;5071835;28;20434;-80
2022/08/25 13:05:26;;;;;;;10.60;9.50;;;;;;;;;;5067426;28;20423;-81
2022/08/25 13:07:59;;;;;;;10.13;9.10;;;;;;;;;;5068850;28;20429;-81
2022/08/25 13:10:32;;;;;;;12.43;9.50;;;;;;;;;;5073485;28;20420;-82
2022/08/25 13:13:03;;;;;;;11.07;9.32;;;;;;;;;;5072371;28;20416;-82
2022/08/25 13:15:36;;;;;;;12.25;9.70;;;;;;;;;;5071856;28;20416;-81
2022/08/25 13:18:29;;;;;;;11.27;9.30;;;;;;;;;;5069947;28;20431;-81
2022/08/25 13:21:02;;;;;;;10.40;9.40;;;;;;;;;;5033365;28;20428;-82
2022/08/25 13:23:28;;;;;;;10.10;9.00;;;;;;;;;;5074226;28;20427;-83
2022/08/25 13:25:58;;;;;;;10.32;9.32;;;;;;;;;;5073389;28;20415;-82
2022/08/25 13:28:28;;;;;;;10.73;9.30;;;;;;;;;;5073717;28;20424;-83
2022/08/25 13:31:03;;;;;;;12.75;8.77;;;;;;;;;;5073615;28;20483;-83
2022/08/25 13:33:30;;;;;;;10.77;9.68;;;;;;;;;;5047014;28;20452;-81
2022/08/25 13:38:37;;;;;;;12.33;9.70;;;;;;;;;;5069750;28;20920;-81
2022/08/25 13:41:04;;;;;;;11.47;9.33;;;;;;;;;;5070432;28;20411;-81
2022/08/25 13:43:32;;;;;;;11.27;9.27;;;;;;;;;;5071041;28;20411;-78
2022/08/25 13:45:58;;;;;;;9.98;8.98;;;;;;;;;;5064786;28;20416;-81
2022/08/25 13:48:32;;;;;;;11.02;9.50;;;;;;;;;;5068171;28;20427;-81
2022/08/25 13:51:07;;;;;;;11.32;9.60;;;;;;;;;;5043122;28;20828;-81
2022/08/25 13:53:34;;;;;;;12.23;9.88;;;;;;;;;;5047904;28;20415;-80
2022/08/25 13:56:01;;;;;;;10.23;9.23;;;;;;;;;;5069141;28;20423;-81
2022/08/25 13:58:30;;;;;;;10.47;9.37;;;;;;;;;;5068136;28;20555;-81
2022/08/25 14:01:06;;;;;;;9.75;8.75;;;;;;;;;;5044448;28;20419;-81
2022/08/25 14:03:34;;;;;;;13.15;9.57;;;;;;;;;;5059766;28;20440;-82
2022/08/25 14:06:04;;;;;;;8.98;8.10;;;;;;;;;;5064597;28;20426;-81
2022/08/25 14:08:32;;;;;;;13.10;8.90;;;;;;;;;;5067190;28;20424;-81
2022/08/25 14:11:02;;;;;;;10.70;8.80;;;;;;;;;;5063203;28;20429;-81
2022/08/25 14:13:31;;;;;;;11.23;8.90;;;;;;;;;;5067000;28;20469;-80
2022/08/25 14:16:09;;;;;;;10.57;9.43;;;;;;;;;;5067528;28;20423;-83
2022/08/25 14:18:36;;;;;;;10.00;9.00;;;;;;;;;;5070223;28;20510;-82
2022/08/25 14:21:10;;;;;;;10.25;8.98;;;;;;;;;;5068061;28;20435;-81
2022/08/25 14:23:37;;;;;;;9.77;8.80;;;;;;;;;;5064722;28;20431;-81
2022/08/25 14:26:04;;;;;;;10.60;8.50;;;;;;;;;;5066010;28;20955;-80
2022/08/25 14:28:30;;;;;;;9.63;8.70;;;;;;;;;;5066651;28;20479;-82
2022/08/25 14:30:59;;;;;;;11.60;9.35;;;;;;;;;;5069048;28;20794;-82
2022/08/25 14:33:29;;;;;;;10.35;9.20;;;;;;;;;;5066966;28;20436;-81
2022/08/25 14:35:58;;;;;;;9.50;8.60;;;;;;;;;;5046755;28;20473;-82
2022/08/25 14:38:24;;;;;;;12.55;9.85;;;;;;;;;;5065059;28;20518;-80
2022/08/25 14:40:50;;;;;;;10.68;8.70;;;;;;;;;;5048596;28;20423;-81
2022/08/25 14:43:17;;;;;;;11.30;8.90;;;;;;;;;;5068300;28;20427;-81
2022/08/25 14:45:46;;;;;;;13.00;9.18;;;;;;;;;;5051215;28;20422;-81
2022/08/25 14:48:14;;;;;;;11.02;9.45;;;;;;;;;;5066750;28;20429;-81
2022/08/25 14:50:42;;;;;;;10.68;8.80;;;;;;;;;;5064151;28;20915;-81
2022/08/25 14:53:10;;;;;;;10.20;8.45;;;;;;;;;;5066454;28;20955;-81
2022/08/25 14:55:36;;;;;;;9.30;8.35;;;;;;;;;;5065864;28;20928;-81
2022/08/25 14:58:03;;;;;;;10.15;8.68;;;;;;;;;;5066691;28;20442;-81
2022/08/25 15:00:29;;;;;;;11.50;8.48;;;;;;;;;;5065811;28;20435;-81
2022/08/25 15:02:56;;;;;;;9.57;8.20;;;;;;;;;;5065882;28;20416;-81
2022/08/25 15:05:26;;;;;;;9.77;8.05;;;;;;;;;;5067104;28;20425;-80
2022/08/25 15:10:40;;;;;;;9.88;8.02;;;;;;;;;;5032879;28;20418;-80
2022/08/25 15:13:07;;;;;;;9.48;8.30;;;;;;;;;;5069225;28;20435;-81
2022/08/25 15:15:34;;;;;;;9.95;8.40;;;;;;;;;;5053768;28;21053;-82
2022/08/25 15:18:00;;;;;;;11.80;8.50;;;;;;;;;;5046341;28;20429;-79
2022/08/25 15:20:27;;;;;;;10.32;8.40;;;;;;;;;;5023644;28;20418;-81